createdAt,value
2018-07-12T00:01:21.160Z,13.60
2018-07-12T00:03:49.408Z,13.60
2018-07-12T00:06:17.514Z,13.70
2018-07-12T00:08:45.818Z,13.70
2018-07-12T00:11:13.920Z,13.70
2018-07-12T00:13:48.469Z,13.60
2018-07-12T00:16:16.828Z,13.70
2018-07-12T00:18:44.945Z,13.70
2018-07-12T00:23:41.767Z,13.60
2018-07-12T00:26:09.970Z,13.70
2018-07-12T00:28:38.052Z,13.70
2018-07-12T00:31:06.315Z,13.60
2018-07-12T00:33:34.540Z,13.60
2018-07-12T00:36:03.597Z,13.50
2018-07-12T00:38:31.796Z,13.60
2018-07-12T00:40:59.901Z,13.60
2018-07-12T00:43:28.051Z,13.60
2018-07-12T00:45:56.182Z,13.70
2018-07-12T00:48:24.279Z,13.70
2018-07-12T00:50:52.395Z,13.70
2018-07-12T00:53:20.492Z,13.70
2018-07-12T00:55:48.599Z,13.70
2018-07-12T00:58:16.714Z,13.80
2018-07-12T01:00:44.831Z,13.70
2018-07-12T01:03:12.911Z,13.60
2018-07-12T01:05:41.041Z,13.80
2018-07-12T01:08:09.251Z,13.80
2018-07-12T01:10:37.366Z,13.60
2018-07-12T01:13:05.521Z,13.60
2018-07-12T01:15:33.626Z,13.70
2018-07-12T01:18:01.764Z,13.70
2018-07-12T01:20:29.892Z,13.80
2018-07-12T01:22:58.082Z,13.90
2018-07-12T01:25:26.236Z,13.90
2018-07-12T01:27:54.329Z,13.80
2018-07-12T01:30:22.468Z,13.80
2018-07-12T01:32:50.588Z,13.80
2018-07-12T01:35:18.675Z,13.80
2018-07-12T01:37:46.797Z,13.80
2018-07-12T01:40:14.881Z,13.80
2018-07-12T01:42:42.972Z,13.80
2018-07-12T01:45:11.485Z,13.90
2018-07-12T01:47:39.582Z,13.90
2018-07-12T01:50:07.701Z,13.90
2018-07-12T01:52:35.842Z,13.90
2018-07-12T01:55:03.964Z,13.90
2018-07-12T01:57:32.054Z,13.90
2018-07-12T02:00:00.189Z,13.80
2018-07-12T02:02:28.267Z,13.90
2018-07-12T02:04:56.395Z,13.90
2018-07-12T02:07:24.547Z,14.00
2018-07-12T02:09:52.644Z,13.90
2018-07-12T02:12:20.765Z,13.90
2018-07-12T02:14:48.866Z,14.00
2018-07-12T02:17:17.093Z,13.90
2018-07-12T02:19:45.268Z,13.90
2018-07-12T02:22:13.421Z,13.90
2018-07-12T02:24:41.540Z,13.90
2018-07-12T02:27:09.738Z,13.90
2018-07-12T02:29:37.961Z,13.90
2018-07-12T02:32:06.167Z,13.90
2018-07-12T02:34:34.363Z,13.90
2018-07-12T02:37:02.485Z,14.00
2018-07-12T02:39:30.594Z,13.90
2018-07-12T02:41:58.708Z,13.90
2018-07-12T02:44:26.915Z,13.80
2018-07-12T02:46:55.013Z,13.90
2018-07-12T02:49:23.146Z,13.80
2018-07-12T02:51:51.233Z,13.90
2018-07-12T02:54:20.458Z,13.90
2018-07-12T02:56:49.336Z,13.80
2018-07-12T02:59:17.470Z,13.90
2018-07-12T03:01:45.562Z,13.90
2018-07-12T03:04:13.750Z,13.90
2018-07-12T03:06:41.895Z,13.80
2018-07-12T03:09:09.983Z,13.80
2018-07-12T03:11:38.079Z,13.80
2018-07-12T03:14:06.449Z,13.80
2018-07-12T03:16:34.589Z,13.80
2018-07-12T03:19:02.755Z,13.80
2018-07-12T03:21:30.844Z,13.70
2018-07-12T03:23:58.931Z,13.70
2018-07-12T03:26:27.032Z,13.80
2018-07-12T03:28:55.145Z,13.80
2018-07-12T03:31:23.237Z,13.80
2018-07-12T03:33:51.380Z,13.70
2018-07-12T03:36:19.497Z,13.80
2018-07-12T03:38:47.787Z,13.80
2018-07-12T03:41:15.871Z,13.80
2018-07-12T03:43:43.987Z,13.80
2018-07-12T03:46:12.075Z,13.70
2018-07-12T03:48:40.249Z,13.60
2018-07-12T03:51:08.540Z,13.50
2018-07-12T03:53:36.653Z,13.60
2018-07-12T03:56:04.817Z,13.70
2018-07-12T03:58:32.925Z,13.70
2018-07-12T04:01:01.040Z,13.70
2018-07-12T04:03:29.265Z,13.80
2018-07-12T04:05:57.382Z,13.90
2018-07-12T04:08:25.467Z,13.90
2018-07-12T04:10:53.600Z,13.90
2018-07-12T04:13:21.696Z,14.00
2018-07-12T04:15:49.775Z,14.00
2018-07-12T04:18:17.879Z,14.10
2018-07-12T04:20:45.963Z,14.10
2018-07-12T04:23:14.059Z,14.00
2018-07-12T04:25:42.325Z,13.80
2018-07-12T04:28:10.435Z,13.80
2018-07-12T04:30:38.547Z,13.90
2018-07-12T04:33:06.649Z,13.90
2018-07-12T04:35:34.819Z,13.90
2018-07-12T04:38:02.952Z,13.80
2018-07-12T04:40:31.064Z,13.90
2018-07-12T04:42:59.174Z,13.90
2018-07-12T04:45:27.271Z,13.80
2018-07-12T04:50:23.617Z,13.90
2018-07-12T04:52:51.731Z,13.90
2018-07-12T04:55:19.812Z,14.00
2018-07-12T04:57:48.004Z,14.10
2018-07-12T05:00:16.114Z,14.10
2018-07-12T05:02:44.244Z,14.10
2018-07-12T05:07:40.615Z,14.20
2018-07-12T05:10:08.730Z,14.10
2018-07-12T05:12:37.120Z,14.00
2018-07-12T05:15:05.242Z,14.00
2018-07-12T05:17:33.359Z,14.10
2018-07-12T05:20:01.426Z,14.20
2018-07-12T05:22:29.648Z,14.20
2018-07-12T05:24:57.752Z,14.20
2018-07-12T05:27:25.842Z,14.10
2018-07-12T05:29:53.946Z,14.30
2018-07-12T05:32:22.129Z,14.40
2018-07-12T05:34:50.216Z,14.30
2018-07-12T05:37:19.597Z,14.30
2018-07-12T05:39:48.941Z,14.30
2018-07-12T05:42:18.220Z,14.40
2018-07-12T05:44:47.530Z,14.40
2018-07-12T05:47:16.901Z,14.60
2018-07-12T05:49:46.254Z,14.70
2018-07-12T05:54:44.433Z,15.00
2018-07-12T05:57:13.774Z,15.00
2018-07-12T05:59:43.072Z,15.00
2018-07-12T06:02:18.966Z,15.10
2018-07-12T06:04:48.871Z,15.30
2018-07-12T06:07:23.790Z,15.60
2018-07-12T06:09:53.266Z,16.70
2018-07-12T06:12:22.631Z,17.50
2018-07-12T06:14:52.019Z,16.60
2018-07-12T06:17:21.330Z,16.00
2018-07-12T06:19:50.891Z,16.10
2018-07-12T06:22:20.235Z,15.70
2018-07-12T06:24:49.671Z,15.70
2018-07-12T06:27:18.965Z,16.00
2018-07-12T06:29:48.317Z,16.50
2018-07-12T06:32:17.662Z,17.50
2018-07-12T06:34:46.951Z,17.60
2018-07-12T06:37:16.596Z,17.30
2018-07-12T06:39:45.725Z,16.80
2018-07-12T06:42:15.091Z,17.10
2018-07-12T06:44:44.395Z,17.60
2018-07-12T06:47:13.820Z,17.50
2018-07-12T06:49:43.109Z,17.90
2018-07-12T06:52:12.421Z,18.30
2018-07-12T06:54:41.738Z,17.60
2018-07-12T06:57:11.149Z,17.30
2018-07-12T06:59:40.472Z,17.20
2018-07-12T07:02:09.960Z,17.20
2018-07-12T07:04:39.337Z,18.10
2018-07-12T07:07:08.749Z,19.40
2018-07-12T07:09:38.265Z,19.10
2018-07-12T07:12:07.852Z,18.20
2018-07-12T07:14:37.268Z,18.60
2018-07-12T07:17:06.640Z,18.40
2018-07-12T07:19:35.962Z,18.70
2018-07-12T07:22:05.308Z,18.30
2018-07-12T07:24:34.623Z,18.50
2018-07-12T07:27:04.483Z,19.00
2018-07-12T07:29:33.813Z,20.20
2018-07-12T07:32:03.146Z,19.30
2018-07-12T07:34:32.440Z,19.40
2018-07-12T07:37:01.825Z,19.50
2018-07-12T07:39:31.266Z,18.90
2018-07-12T07:42:00.598Z,18.90
2018-07-12T07:44:29.979Z,18.60
2018-07-12T07:46:59.316Z,19.00
2018-07-12T07:49:28.653Z,19.30
2018-07-12T07:51:57.988Z,19.30
2018-07-12T07:54:27.311Z,18.80
2018-07-12T07:56:56.693Z,18.60
2018-07-12T07:59:27.217Z,18.90
2018-07-12T08:01:56.715Z,19.00
2018-07-12T08:04:26.173Z,18.90
2018-07-12T08:06:56.023Z,18.90
2018-07-12T08:09:25.946Z,18.90
2018-07-12T08:11:55.505Z,19.00
2018-07-12T08:14:25.990Z,19.50
2018-07-12T08:16:55.330Z,19.20
2018-07-12T08:19:25.712Z,19.30
2018-07-12T08:22:04.848Z,19.30
2018-07-12T08:24:35.653Z,20.20
2018-07-12T08:27:05.833Z,20.40
2018-07-12T08:29:35.315Z,20.40
2018-07-12T08:32:05.136Z,20.50
2018-07-12T08:34:34.489Z,20.80
2018-07-12T08:37:03.930Z,21.10
2018-07-12T08:39:33.298Z,21.50
2018-07-12T08:42:02.746Z,21.60
2018-07-12T08:44:32.398Z,21.50
2018-07-12T08:47:01.707Z,21.60
2018-07-12T08:49:31.153Z,22.40
2018-07-12T08:52:01.068Z,22.40
2018-07-12T08:57:00.011Z,23.70
2018-07-12T08:59:30.370Z,24.20
2018-07-12T09:01:59.751Z,24.30
2018-07-12T09:04:29.096Z,23.90
2018-07-12T09:06:58.446Z,23.00
2018-07-12T09:09:27.886Z,23.00
2018-07-12T09:11:57.261Z,22.80
2018-07-12T09:14:26.687Z,22.50
2018-07-12T09:16:56.641Z,22.80
2018-07-12T09:19:26.041Z,22.50
2018-07-12T09:21:55.337Z,21.80
2018-07-12T09:24:24.682Z,21.30
2018-07-12T09:26:54.132Z,21.10
2018-07-12T09:29:23.416Z,21.00
2018-07-12T09:31:52.721Z,21.40
2018-07-12T09:34:24.820Z,21.10
2018-07-12T09:36:55.474Z,21.40
2018-07-12T09:39:25.734Z,21.90
2018-07-12T09:41:55.443Z,21.70
2018-07-12T09:44:24.756Z,21.90
2018-07-12T09:46:54.148Z,23.00
2018-07-12T09:49:23.831Z,23.00
2018-07-12T09:51:53.008Z,23.90
2018-07-12T09:54:22.339Z,23.80
2018-07-12T09:57:03.124Z,23.60
2018-07-12T09:59:32.565Z,23.80
2018-07-12T10:02:07.373Z,23.40
2018-07-12T10:04:36.743Z,23.60
2018-07-12T10:07:11.806Z,24.20
2018-07-12T10:09:46.368Z,23.90
2018-07-12T10:12:21.252Z,22.90
2018-07-12T10:14:55.739Z,23.00
2018-07-12T10:17:30.700Z,23.10
2018-07-12T10:20:00.243Z,21.90
2018-07-12T10:22:29.743Z,21.90
2018-07-12T10:24:59.230Z,23.10
2018-07-12T10:27:29.027Z,23.60
2018-07-12T10:29:58.638Z,24.70
2018-07-12T10:32:28.068Z,24.20
2018-07-12T10:34:57.504Z,23.90
2018-07-12T10:37:26.817Z,23.70
2018-07-12T10:39:56.186Z,23.50
2018-07-12T10:44:54.380Z,23.00
2018-07-12T10:49:52.582Z,23.00
2018-07-12T10:52:21.917Z,23.10
2018-07-12T10:54:53.232Z,22.60
2018-07-12T10:57:22.741Z,23.40
2018-07-12T10:59:52.274Z,24.40
2018-07-12T11:02:21.789Z,24.50
2018-07-12T11:04:51.274Z,24.80
2018-07-12T11:07:20.701Z,24.60
2018-07-12T11:09:50.140Z,25.20
2018-07-12T11:12:19.647Z,24.70
2018-07-12T11:14:49.089Z,24.20
2018-07-12T11:17:18.545Z,24.60
2018-07-12T11:19:47.887Z,23.50
2018-07-12T11:22:17.301Z,24.40
2018-07-12T11:24:46.826Z,24.10
2018-07-12T11:27:16.250Z,24.90
2018-07-12T11:29:53.452Z,24.90
2018-07-12T11:34:52.250Z,26.40
2018-07-12T11:37:27.021Z,26.00
2018-07-12T11:39:56.295Z,24.80
2018-07-12T11:42:25.600Z,23.90
2018-07-12T11:44:55.195Z,24.00
2018-07-12T11:47:24.553Z,23.90
2018-07-12T11:49:54.163Z,24.80
2018-07-12T11:52:23.508Z,24.90
2018-07-12T11:54:53.167Z,23.80
2018-07-12T11:57:23.684Z,24.70
2018-07-12T11:59:53.304Z,25.40
2018-07-12T12:02:25.027Z,25.80
2018-07-12T12:04:54.579Z,26.20
2018-07-12T12:07:24.076Z,24.60
2018-07-12T12:09:53.594Z,25.70
2018-07-12T12:12:23.124Z,26.10
2018-07-12T12:17:21.605Z,25.80
2018-07-12T12:19:51.185Z,25.40
2018-07-12T12:22:20.810Z,26.80
2018-07-12T12:24:51.215Z,25.80
2018-07-12T12:27:21.063Z,25.40
2018-07-12T12:29:51.561Z,26.50
2018-07-12T12:32:22.069Z,25.70
2018-07-12T12:34:51.672Z,26.60
2018-07-12T12:37:22.043Z,26.40
2018-07-12T12:39:52.492Z,25.60
2018-07-12T12:42:22.271Z,27.40
2018-07-12T12:44:51.629Z,27.10
2018-07-12T12:47:20.992Z,26.60
2018-07-12T12:49:50.553Z,27.30
2018-07-12T12:52:19.852Z,26.80
2018-07-12T12:54:49.343Z,25.90
2018-07-12T12:57:19.888Z,25.40
2018-07-12T12:59:49.381Z,27.10
2018-07-12T13:04:50.554Z,27.20
2018-07-12T13:07:24.525Z,25.90
2018-07-12T13:09:57.057Z,26.40
2018-07-12T13:12:27.790Z,25.40
2018-07-12T13:14:59.931Z,25.70
2018-07-12T13:17:32.037Z,26.20
2018-07-12T13:20:05.465Z,27.20
2018-07-12T13:25:07.546Z,27.70
2018-07-12T13:27:38.818Z,27.10
2018-07-12T13:30:10.596Z,27.70
2018-07-12T13:32:40.843Z,27.40
2018-07-12T13:35:13.287Z,27.20
2018-07-12T13:37:49.587Z,27.40
2018-07-12T13:40:23.232Z,26.00
2018-07-12T13:42:56.117Z,25.60
2018-07-12T13:45:28.928Z,26.20
2018-07-12T13:48:00.152Z,26.30
2018-07-12T13:50:32.392Z,25.60
2018-07-12T13:53:06.243Z,26.60
2018-07-12T13:55:38.023Z,27.50
2018-07-12T13:58:09.719Z,27.10
2018-07-12T14:00:39.634Z,25.60
2018-07-12T14:03:10.870Z,25.30
2018-07-12T14:05:44.673Z,26.10
2018-07-12T14:08:21.976Z,25.60
2018-07-12T14:10:53.776Z,25.40
2018-07-12T14:13:24.852Z,25.30
2018-07-12T14:15:55.946Z,25.10
2018-07-12T14:18:27.273Z,25.30
2018-07-12T14:23:32.029Z,25.90
2018-07-12T14:26:03.640Z,25.80
2018-07-12T14:28:36.322Z,25.80
2018-07-12T14:31:08.816Z,25.70
2018-07-12T14:33:40.413Z,26.90
2018-07-12T14:36:11.094Z,26.90
2018-07-12T14:38:42.591Z,27.00
2018-07-12T14:41:16.359Z,27.80
2018-07-12T14:43:46.855Z,27.70
2018-07-12T14:46:18.294Z,29.10
2018-07-12T14:51:23.888Z,29.30
2018-07-12T14:53:55.467Z,28.70
2018-07-12T14:56:27.853Z,28.60
2018-07-12T14:59:02.519Z,27.80
2018-07-12T15:01:34.749Z,28.00
2018-07-12T15:04:06.371Z,27.00
2018-07-12T15:06:40.645Z,27.30
2018-07-12T15:09:11.888Z,28.50
2018-07-12T15:14:15.229Z,27.20
2018-07-12T15:16:48.234Z,26.80
2018-07-12T15:19:23.619Z,26.30
2018-07-12T15:21:53.435Z,25.80
2018-07-12T15:24:22.863Z,25.90
2018-07-12T15:26:53.096Z,26.10
2018-07-12T15:29:22.481Z,26.10
2018-07-12T15:31:51.822Z,26.40
2018-07-12T15:34:21.264Z,26.70
2018-07-12T15:36:50.637Z,27.10
2018-07-12T15:39:20.133Z,27.90
2018-07-12T15:41:50.203Z,27.50
2018-07-12T15:44:19.662Z,27.80
2018-07-12T15:46:49.090Z,28.20
2018-07-12T15:49:18.523Z,27.80
2018-07-12T15:51:47.998Z,27.30
2018-07-12T15:54:17.317Z,27.10
2018-07-12T15:56:47.403Z,27.10
2018-07-12T15:59:17.824Z,27.40
2018-07-12T16:01:47.274Z,26.60
2018-07-12T16:04:16.619Z,26.20
2018-07-12T16:06:46.543Z,26.30
2018-07-12T16:09:16.274Z,26.10
2018-07-12T16:11:45.637Z,25.70
2018-07-12T16:14:14.989Z,25.40
2018-07-12T16:16:44.440Z,25.20
2018-07-12T16:19:13.957Z,24.70
2018-07-12T16:21:43.358Z,24.40
2018-07-12T16:24:12.699Z,23.90
2018-07-12T16:26:42.423Z,23.90
2018-07-12T16:29:12.397Z,24.00
2018-07-12T16:31:41.747Z,24.10
2018-07-12T16:34:11.133Z,23.60
2018-07-12T16:36:41.561Z,23.30
2018-07-12T16:39:10.873Z,23.60
2018-07-12T16:41:41.091Z,23.20
2018-07-12T16:44:10.529Z,22.90
2018-07-12T16:46:39.888Z,22.50
2018-07-12T16:49:10.195Z,22.50
2018-07-12T16:51:39.660Z,22.40
2018-07-12T16:54:08.969Z,21.70
2018-07-12T16:56:38.379Z,20.90
2018-07-12T16:59:07.671Z,20.10
2018-07-12T17:01:37.083Z,19.90
2018-07-12T17:04:06.520Z,19.40
2018-07-12T17:06:35.941Z,19.20
2018-07-12T17:09:06.870Z,19.10
2018-07-12T17:11:36.310Z,19.00
2018-07-12T17:17:05.442Z,18.60
2018-07-12T17:19:34.872Z,18.50
2018-07-12T17:22:04.256Z,18.60
2018-07-12T17:24:33.704Z,18.70
2018-07-12T17:27:04.113Z,18.60
2018-07-12T17:29:33.495Z,18.60
2018-07-12T17:32:02.830Z,18.50
2018-07-12T17:34:32.319Z,18.60
2018-07-12T17:37:02.011Z,18.70
2018-07-12T17:39:31.338Z,18.80
2018-07-12T17:42:01.048Z,18.90
2018-07-12T17:44:30.516Z,18.90
2018-07-12T17:47:00.132Z,18.90
2018-07-12T17:49:29.478Z,18.80
2018-07-12T17:51:58.903Z,18.80
2018-07-12T17:54:28.210Z,18.90
2018-07-12T17:56:57.654Z,19.00
2018-07-12T17:59:27.033Z,19.00
2018-07-12T18:01:56.424Z,18.90
2018-07-12T18:04:25.772Z,19.00
2018-07-12T18:06:55.135Z,19.00
2018-07-12T18:09:24.503Z,18.90
2018-07-12T18:11:54.391Z,18.90
2018-07-12T18:14:23.772Z,18.90
2018-07-12T18:16:53.222Z,19.10
2018-07-12T18:19:22.624Z,19.10
2018-07-12T18:24:20.967Z,19.10
2018-07-12T18:26:50.315Z,19.00
2018-07-12T18:29:19.676Z,18.90
2018-07-12T18:31:49.024Z,18.80
2018-07-12T18:34:18.378Z,18.60
2018-07-12T18:36:47.852Z,18.60
2018-07-12T18:39:18.193Z,18.70
2018-07-12T18:41:47.537Z,18.80
2018-07-12T18:44:17.055Z,18.60
2018-07-12T18:46:46.383Z,18.60
2018-07-12T18:49:15.720Z,18.60
2018-07-12T18:51:45.054Z,18.60
2018-07-12T18:56:43.833Z,18.50
2018-07-12T18:59:13.278Z,18.40
2018-07-12T19:01:42.722Z,18.50
2018-07-12T19:04:12.090Z,18.40
2018-07-12T19:06:41.676Z,18.30
2018-07-12T19:09:11.682Z,18.30
2018-07-12T19:11:41.095Z,18.20
2018-07-12T19:16:39.431Z,18.10
2018-07-12T19:19:08.838Z,18.00
2018-07-12T19:21:38.277Z,18.00
2018-07-12T19:24:07.758Z,18.00
2018-07-12T19:26:37.069Z,18.10
2018-07-12T19:29:06.730Z,18.10
2018-07-12T19:31:36.137Z,18.10
2018-07-12T19:34:05.520Z,18.00
2018-07-12T19:39:05.157Z,18.00
2018-07-12T19:41:34.697Z,17.90
2018-07-12T19:44:04.024Z,18.00
2018-07-12T19:46:33.448Z,17.90
2018-07-12T19:49:02.881Z,17.90
2018-07-12T19:51:32.359Z,17.90
2018-07-12T19:54:01.936Z,17.90
2018-07-12T19:56:31.264Z,17.90
2018-07-12T19:59:00.625Z,18.00
2018-07-12T20:01:29.701Z,17.90
2018-07-12T20:03:58.815Z,17.90
2018-07-12T20:06:27.942Z,17.90
2018-07-12T20:08:57.043Z,17.80
2018-07-12T20:11:26.316Z,17.90
2018-07-12T20:13:55.681Z,17.90
2018-07-12T20:16:26.110Z,17.80
2018-07-12T20:18:55.411Z,17.80
2018-07-12T20:21:24.803Z,17.80
2018-07-12T20:23:54.153Z,17.80
2018-07-12T20:26:24.716Z,17.70
2018-07-12T20:28:53.898Z,17.70
2018-07-12T20:31:23.281Z,17.70
2018-07-12T20:36:21.529Z,17.60
2018-07-12T20:38:50.812Z,17.60
2018-07-12T20:41:20.400Z,17.60
2018-07-12T20:43:49.683Z,17.60
2018-07-12T20:46:19.088Z,17.60
2018-07-12T20:48:48.428Z,17.50
2018-07-12T20:51:17.754Z,17.50
2018-07-12T20:53:47.066Z,17.50
2018-07-12T20:56:16.446Z,17.50
2018-07-12T20:58:45.857Z,17.50
2018-07-12T21:01:15.252Z,17.40
2018-07-12T21:03:44.568Z,17.30
2018-07-12T21:06:13.869Z,17.30
2018-07-12T21:08:43.173Z,17.30
2018-07-12T21:11:12.545Z,17.40
2018-07-12T21:13:42.682Z,17.20
2018-07-12T21:16:21.636Z,17.20
2018-07-12T21:18:51.230Z,17.20
2018-07-12T21:21:20.838Z,17.10
2018-07-12T21:23:50.177Z,17.00
2018-07-12T21:26:19.472Z,17.00
2018-07-12T21:28:48.949Z,17.00
2018-07-12T21:31:18.442Z,17.00
2018-07-12T21:33:47.752Z,17.00
2018-07-12T21:36:17.118Z,16.90
2018-07-12T21:38:46.406Z,16.90
2018-07-12T21:43:44.638Z,17.00
2018-07-12T21:46:14.040Z,17.00
2018-07-12T21:48:43.402Z,17.00
2018-07-12T21:53:41.557Z,17.00
2018-07-12T21:58:39.728Z,16.90
2018-07-12T22:01:09.191Z,16.90
2018-07-12T22:03:38.514Z,16.80
2018-07-12T22:06:07.838Z,16.80
2018-07-12T22:08:37.112Z,16.80
2018-07-12T22:11:06.968Z,16.70
2018-07-12T22:13:37.397Z,16.70
2018-07-12T22:16:06.798Z,16.60
2018-07-12T22:18:36.181Z,16.50
2018-07-12T22:21:05.558Z,16.50
2018-07-12T22:23:34.795Z,16.50
2018-07-12T22:26:04.078Z,16.50
2018-07-12T22:28:33.408Z,16.50
2018-07-12T22:31:02.736Z,16.50
2018-07-12T22:33:32.025Z,16.50
2018-07-12T22:36:01.331Z,16.40
2018-07-12T22:38:30.664Z,16.40
2018-07-12T22:41:00.074Z,16.40
2018-07-12T22:43:29.373Z,16.40
2018-07-12T22:45:58.664Z,16.40
2018-07-12T22:48:28.206Z,16.30
2018-07-12T22:50:58.163Z,16.30
2018-07-12T22:55:56.274Z,16.10
2018-07-12T22:58:25.642Z,16.20
2018-07-12T23:00:54.941Z,16.20
2018-07-12T23:03:24.224Z,16.20
2018-07-12T23:05:53.484Z,16.10
2018-07-12T23:08:22.761Z,16.00
2018-07-12T23:10:52.169Z,15.90
2018-07-12T23:13:21.461Z,16.00
2018-07-12T23:15:50.802Z,16.00
2018-07-12T23:18:20.170Z,15.90
2018-07-12T23:20:49.477Z,16.00
2018-07-12T23:23:18.753Z,15.90
2018-07-12T23:25:48.004Z,15.90
2018-07-12T23:28:17.265Z,15.90
2018-07-12T23:30:46.604Z,15.90
2018-07-12T23:33:15.908Z,15.90
2018-07-12T23:35:45.272Z,15.90
2018-07-12T23:38:14.576Z,15.80
2018-07-12T23:40:43.974Z,15.80
2018-07-12T23:43:13.246Z,15.70
2018-07-12T23:45:42.550Z,15.70
2018-07-12T23:48:11.850Z,15.60
2018-07-12T23:53:10.136Z,15.70
2018-07-12T23:55:39.472Z,15.60
2018-07-12T23:58:08.780Z,15.60
